Time;durP1;ratioP1;P1;durP2;ratioP2;P2;SDS_P1;SDS_P2;PMS_P1;PMS_P2;Temp;Humidity;BMP_temperature;BMP_pressure;BME280_temperature;BME280_humidity;BME280_pressure;Samples;Min_cycle;Max_cycle;Signal;HPM_P1;HPM_P2
2021/12/05 04:11:57;;;;;;;;;;;;;;;;;;2275356;59;21605;-77
2021/12/05 04:14:25;;;;;;;19.98;11.30;;;;;;;;;;2451071;55;20140;-77
2021/12/05 04:16:53;;;;;;;21.17;11.27;;;;;;;;;;2283849;58;21216;-76
2021/12/05 04:19:20;;;;;;;20.70;11.57;;;;;;;;;;2339289;54;21141;-77
2021/12/05 04:21:47;;;;;;;19.50;11.57;;;;;;;;;;2298069;58;21054;-76
2021/12/05 04:24:15;;;;;;;20.23;11.48;;;;;;;;;;2298241;58;21133;-77
2021/12/05 04:26:42;;;;;;;20.00;11.27;;;;;;;;;;2298496;58;21054;-77
2021/12/05 04:29:10;;;;;;;20.92;12.55;;;;;;;;;;2298180;58;21074;-76
2021/12/05 04:31:38;;;;;;;23.02;12.30;;;;;;;;;;2298300;58;21137;-77
2021/12/05 04:34:05;;;;;;;21.12;12.23;;;;;;;;;;2298187;58;21151;-77
2021/12/05 04:36:32;;;;;;;23.45;12.23;;;;;;;;;;2310272;54;21053;-77
2021/12/05 04:38:59;;;;;;;25.75;13.90;;;;;;;;;;2298248;58;21061;-76
2021/12/05 04:41:26;;;;;;;23.35;12.73;;;;;;;;;;2298223;58;21144;-77
2021/12/05 04:43:53;;;;;;;25.65;13.25;;;;;;;;;;2305171;54;21133;-77
2021/12/05 04:46:22;;;;;;;24.60;13.30;;;;;;;;;;2302799;54;21062;-77
2021/12/05 04:48:51;;;;;;;24.55;13.02;;;;;;;;;;2298283;58;21070;-77
2021/12/05 04:51:18;;;;;;;20.98;11.73;;;;;;;;;;2298346;54;21114;-77
2021/12/05 04:53:45;;;;;;;22.58;13.25;;;;;;;;;;2297868;58;21066;-77
2021/12/05 04:56:12;;;;;;;24.17;13.40;;;;;;;;;;2298329;58;21065;-77
2021/12/05 04:58:40;;;;;;;21.52;12.88;;;;;;;;;;2297974;58;21065;-77
2021/12/05 05:01:07;;;;;;;25.45;13.68;;;;;;;;;;2298506;58;21643;-77
2021/12/05 05:03:34;;;;;;;26.17;14.00;;;;;;;;;;2298715;58;22175;-77
2021/12/05 05:06:06;;;;;;;24.50;13.65;;;;;;;;;;2298431;58;21082;-77
2021/12/05 05:08:33;;;;;;;29.12;15.50;;;;;;;;;;2298656;58;21137;-77
2021/12/05 05:11:01;;;;;;;24.65;14.05;;;;;;;;;;2297829;58;21576;-77
2021/12/05 05:13:29;;;;;;;25.52;13.77;;;;;;;;;;2298724;58;21089;-77
2021/12/05 05:15:57;;;;;;;28.02;15.98;;;;;;;;;;2298843;58;21145;-77
2021/12/05 05:18:30;;;;;;;26.62;14.55;;;;;;;;;;2298908;58;21085;-77
2021/12/05 05:21:06;;;;;;;25.88;14.20;;;;;;;;;;2298547;58;21074;-77
2021/12/05 05:23:44;;;;;;;22.83;12.85;;;;;;;;;;2340435;54;21133;-77
2021/12/05 05:26:51;;;;;;;29.50;13.65;;;;;;;;;;2368142;54;21058;-77
2021/12/05 05:40:41;;;;;;;30.42;14.85;;;;;;;;;;2339458;54;21037;-77
2021/12/05 05:43:40;;;;;;;29.08;15.07;;;;;;;;;;2299048;58;21142;-76
2021/12/05 05:46:11;;;;;;;28.35;15.20;;;;;;;;;;2298236;58;21066;-77
2021/12/05 05:48:48;;;;;;;31.15;16.35;;;;;;;;;;2351235;54;21074;-77
2021/12/05 05:51:15;;;;;;;27.65;14.52;;;;;;;;;;2299300;58;21053;-77
2021/12/05 05:53:45;;;;;;;30.92;15.57;;;;;;;;;;2299345;58;21069;-77
2021/12/05 05:56:17;;;;;;;27.70;14.05;;;;;;;;;;2299952;54;21065;-77
2021/12/05 05:58:48;;;;;;;30.00;16.40;;;;;;;;;;2299084;58;21042;-77
2021/12/05 06:01:21;;;;;;;30.45;14.93;;;;;;;;;;2300429;54;21105;-77
2021/12/05 06:03:49;;;;;;;30.17;15.15;;;;;;;;;;2305102;54;21137;-77
2021/12/05 06:06:17;;;;;;;32.13;15.57;;;;;;;;;;2298760;58;21547;-77
2021/12/05 06:08:45;;;;;;;30.05;16.77;;;;;;;;;;2301798;54;21634;-78
2021/12/05 06:11:13;;;;;;;30.83;15.48;;;;;;;;;;2298129;58;21145;-77
2021/12/05 06:13:40;;;;;;;29.67;15.13;;;;;;;;;;2304102;54;21054;-77
2021/12/05 06:16:07;;;;;;;32.92;16.87;;;;;;;;;;2303419;54;21117;-77
2021/12/05 06:18:35;;;;;;;27.35;14.68;;;;;;;;;;2319177;54;21109;-77
2021/12/05 06:21:02;;;;;;;25.88;14.82;;;;;;;;;;2298842;58;21102;-77
2021/12/05 06:23:29;;;;;;;31.65;15.27;;;;;;;;;;2298576;58;21129;-77
2021/12/05 06:25:57;;;;;;;30.20;15.30;;;;;;;;;;2298689;58;21120;-77
2021/12/05 06:28:29;;;;;;;28.73;15.50;;;;;;;;;;2298556;58;21054;-77
2021/12/05 06:31:02;;;;;;;154.27;27.92;;;;;;;;;;2299131;54;21129;-77
2021/12/05 06:39:25;;;;;;;33.05;15.50;;;;;;;;;;2298202;54;21452;-77
2021/12/05 06:42:01;;;;;;;40.20;15.80;;;;;;;;;;2298245;58;21137;-77
2021/12/05 06:47:28;;;;;;;40.78;16.92;;;;;;;;;;2404043;54;21619;-77
2021/12/05 06:49:55;;;;;;;128.62;28.02;;;;;;;;;;2298222;58;21118;-75
2021/12/05 06:52:22;;;;;;;46.65;18.00;;;;;;;;;;2298197;58;21628;-76
2021/12/05 06:54:50;;;;;;;33.13;16.45;;;;;;;;;;2298535;57;21144;-77
2021/12/05 06:57:18;;;;;;;30.00;16.00;;;;;;;;;;2298359;58;21092;-76
2021/12/05 06:59:47;;;;;;;30.65;15.35;;;;;;;;;;2297938;58;21639;-77
2021/12/05 07:02:15;;;;;;;31.48;15.50;;;;;;;;;;2298944;58;21073;-77
2021/12/05 07:07:35;;;;;;;36.28;16.80;;;;;;;;;;2325394;55;21161;-77
2021/12/05 07:10:03;;;;;;;35.55;17.75;;;;;;;;;;2334203;54;21132;-76
2021/12/05 07:13:14;;;;;;;33.80;16.85;;;;;;;;;;2301812;54;21734;-77
2021/12/05 07:15:47;;;;;;;34.72;15.55;;;;;;;;;;2299830;54;21140;-76
2021/12/05 07:21:07;;;;;;;126.75;26.87;;;;;;;;;;2302849;54;21064;-76
2021/12/05 07:23:46;;;;;;;33.50;15.85;;;;;;;;;;2297741;56;21073;-77
2021/12/05 07:26:18;;;;;;;33.40;17.10;;;;;;;;;;2320539;54;21134;-78
2021/12/05 07:42:38;;;;;;;34.60;15.18;;;;;;;;;;2298093;54;21516;-76
2021/12/05 07:45:07;;;;;;;29.45;14.38;;;;;;;;;;2297431;58;21073;-77
2021/12/05 07:47:35;;;;;;;31.65;15.90;;;;;;;;;;2298348;58;21058;-76
2021/12/05 07:50:06;;;;;;;30.05;15.07;;;;;;;;;;2321931;54;21475;-77
2021/12/05 07:52:35;;;;;;;40.45;16.30;;;;;;;;;;2298632;58;21062;-77
2021/12/05 07:55:11;;;;;;;28.27;14.68;;;;;;;;;;2298884;58;21085;-77
2021/12/05 07:57:51;;;;;;;33.40;16.70;;;;;;;;;;2306806;54;21125;-77
2021/12/05 08:00:25;;;;;;;34.70;16.40;;;;;;;;;;2298206;58;21231;-75
2021/12/05 08:16:48;;;;;;;34.83;16.52;;;;;;;;;;2346577;53;21098;-76
2021/12/05 08:19:16;;;;;;;29.87;15.73;;;;;;;;;;2348929;53;21042;-73
2021/12/05 08:21:43;;;;;;;30.98;16.27;;;;;;;;;;2345845;57;21041;-77
2021/12/05 08:24:10;;;;;;;31.33;17.37;;;;;;;;;;2345555;57;21105;-75
2021/12/05 08:26:37;;;;;;;32.53;16.20;;;;;;;;;;2345938;57;21092;-75
2021/12/05 08:29:09;;;;;;;34.92;17.98;;;;;;;;;;2351141;53;21557;-76
2021/12/05 08:31:57;;;;;;;34.22;16.90;;;;;;;;;;2346433;57;21049;-75
2021/12/05 08:34:43;;;;;;;36.22;17.37;;;;;;;;;;2370784;53;21045;-77
2021/12/05 08:45:56;;;;;;;33.42;16.30;;;;;;;;;;2314011;55;21605;-75
2021/12/05 09:30:10;;;;;;;32.25;16.40;;;;;;;;;;2344368;53;21123;-76
2021/12/05 10:03:33;;;;;;;32.20;17.00;;;;;;;;;;2344766;53;21057;-77
2021/12/05 10:08:53;;;;;;;33.75;18.10;;;;;;;;;;2344724;53;20978;-76
2021/12/05 10:11:31;;;;;;;;;;;;;;;;;;2367326;52;69115;-80
2021/12/05 10:14:28;;;;;;;30.17;15.98;;;;;;;;;;2376906;56;20140;-79
2021/12/05 10:17:17;;;;;;;30.48;15.45;;;;;;;;;;2377703;56;21030;-81
2021/12/05 10:36:11;;;;;;;35.08;17.77;;;;;;;;;;2376172;56;20931;-79
2021/12/05 10:38:43;;;;;;;31.77;17.02;;;;;;;;;;2376255;56;21023;-79
2021/12/05 10:41:35;;;;;;;33.90;18.47;;;;;;;;;;2376759;56;21147;-79
2021/12/05 10:44:04;;;;;;;34.10;18.12;;;;;;;;;;2376359;56;21180;-81
2021/12/05 10:46:32;;;;;;;98.95;26.90;;;;;;;;;;2629802;52;21046;-80
2021/12/05 10:49:03;;;;;;;36.45;17.85;;;;;;;;;;2376097;56;21054;-79
2021/12/05 10:51:31;;;;;;;32.50;17.90;;;;;;;;;;2375965;56;21058;-78
2021/12/05 10:53:58;;;;;;;33.33;17.62;;;;;;;;;;2629209;52;21027;-78
2021/12/05 10:56:27;;;;;;;35.60;18.95;;;;;;;;;;2629132;52;21070;-79
2021/12/05 10:58:56;;;;;;;34.92;18.17;;;;;;;;;;2629094;52;21083;-80
2021/12/05 11:01:28;;;;;;;36.75;19.23;;;;;;;;;;2376120;56;21097;-80
2021/12/05 11:03:57;;;;;;;32.20;17.02;;;;;;;;;;2375463;56;21614;-79
2021/12/05 11:06:29;;;;;;;43.15;19.65;;;;;;;;;;2376185;56;21051;-80
2021/12/05 11:08:57;;;;;;;36.92;18.25;;;;;;;;;;2375783;56;21019;-80
2021/12/05 11:11:25;;;;;;;35.80;17.80;;;;;;;;;;2375719;56;21146;-79
2021/12/05 11:13:52;;;;;;;34.63;18.17;;;;;;;;;;2375999;56;21015;-79
2021/12/05 11:16:33;;;;;;;39.08;20.35;;;;;;;;;;2629747;52;21031;-78
2021/12/05 11:19:00;;;;;;;37.75;19.92;;;;;;;;;;2375946;56;21110;-79
2021/12/05 11:21:30;;;;;;;33.50;18.37;;;;;;;;;;2376383;56;21086;-79
2021/12/05 11:24:11;;;;;;;37.83;19.17;;;;;;;;;;2375679;56;21026;-79
2021/12/05 11:26:40;;;;;;;40.20;20.90;;;;;;;;;;2630409;52;21027;-81
2021/12/05 11:29:07;;;;;;;38.40;19.83;;;;;;;;;;2629823;52;21019;-81
2021/12/05 11:31:34;;;;;;;36.28;18.65;;;;;;;;;;2376344;56;21003;-81
2021/12/05 11:34:02;;;;;;;36.83;18.45;;;;;;;;;;2376408;56;21035;-81
2021/12/05 11:36:30;;;;;;;37.20;19.77;;;;;;;;;;2629943;52;21086;-80
2021/12/05 11:38:57;;;;;;;35.58;19.42;;;;;;;;;;2376318;56;21102;-81
2021/12/05 11:41:24;;;;;;;86.97;27.20;;;;;;;;;;2629099;52;21106;-80
2021/12/05 11:43:52;;;;;;;34.25;19.12;;;;;;;;;;2629620;52;21046;-80
2021/12/05 11:46:20;;;;;;;39.63;20.08;;;;;;;;;;2376188;56;21003;-79
2021/12/05 11:48:49;;;;;;;42.00;19.75;;;;;;;;;;2376199;56;21039;-78
2021/12/05 11:51:35;;;;;;;39.53;19.83;;;;;;;;;;2376398;56;21039;-82
2021/12/05 11:54:08;;;;;;;30.05;17.15;;;;;;;;;;2376321;56;21681;-81
2021/12/05 11:56:43;;;;;;;35.53;19.05;;;;;;;;;;2377196;56;21002;-80
2021/12/05 11:59:14;;;;;;;41.97;21.65;;;;;;;;;;2631336;52;21039;-80
2021/12/05 12:01:42;;;;;;;50.75;21.90;;;;;;;;;;2378247;56;21091;-80
2021/12/05 12:04:09;;;;;;;36.92;18.52;;;;;;;;;;2378727;56;21082;-80
2021/12/05 12:06:36;;;;;;;42.10;19.30;;;;;;;;;;2378419;56;21031;-81
2021/12/05 12:09:03;;;;;;;38.55;20.37;;;;;;;;;;2629970;52;21091;-79
2021/12/05 12:11:30;;;;;;;36.60;18.40;;;;;;;;;;2375580;56;21554;-80
2021/12/05 12:13:57;;;;;;;39.28;20.92;;;;;;;;;;2629173;52;21020;-79
2021/12/05 12:16:24;;;;;;;42.33;21.17;;;;;;;;;;2376347;56;21587;-80
2021/12/05 12:18:52;;;;;;;39.28;19.67;;;;;;;;;;2375957;56;21106;-80
2021/12/05 12:21:21;;;;;;;36.22;19.05;;;;;;;;;;2375597;56;21657;-79
2021/12/05 12:23:50;;;;;;;38.92;20.20;;;;;;;;;;2376102;56;21034;-78
2021/12/05 12:26:17;;;;;;;36.38;19.48;;;;;;;;;;2375560;56;21015;-79
2021/12/05 12:28:44;;;;;;;36.70;19.60;;;;;;;;;;2375143;56;21039;-76
2021/12/05 12:31:13;;;;;;;41.13;21.50;;;;;;;;;;2375632;56;21074;-80
2021/12/05 12:33:42;;;;;;;42.13;19.87;;;;;;;;;;2375192;56;21522;-79
2021/12/05 12:36:10;;;;;;;36.50;19.37;;;;;;;;;;2376400;56;21050;-79
2021/12/05 12:38:39;;;;;;;40.38;21.10;;;;;;;;;;2376303;56;21523;-81
2021/12/05 12:41:12;;;;;;;40.22;21.27;;;;;;;;;;2629422;52;21122;-80
2021/12/05 12:43:41;;;;;;;41.37;19.75;;;;;;;;;;2630301;52;21125;-81
2021/12/05 12:46:19;;;;;;;40.53;21.10;;;;;;;;;;2629310;52;21098;-78
2021/12/05 12:48:46;;;;;;;35.83;18.83;;;;;;;;;;2375267;56;21039;-79
2021/12/05 12:51:26;;;;;;;38.50;20.73;;;;;;;;;;2375642;56;21015;-79
2021/12/05 12:53:55;;;;;;;39.63;19.50;;;;;;;;;;2629265;52;21038;-77
2021/12/05 12:56:23;;;;;;;35.97;19.35;;;;;;;;;;2626705;52;21566;-80
2021/12/05 12:58:52;;;;;;;39.55;19.80;;;;;;;;;;2372668;56;21130;-78
2021/12/05 13:01:37;;;;;;;37.65;20.12;;;;;;;;;;2628606;52;21043;-80
2021/12/05 13:04:30;;;;;;;38.17;19.17;;;;;;;;;;2375384;56;21038;-79
2021/12/05 13:10:01;;;;;;;38.50;18.65;;;;;;;;;;2374608;56;21018;-79
2021/12/05 13:12:45;;;;;;;36.83;19.65;;;;;;;;;;2375401;56;21103;-79
2021/12/05 13:15:16;;;;;;;38.28;19.98;;;;;;;;;;2375624;56;21066;-79
2021/12/05 13:17:44;;;;;;;41.40;20.17;;;;;;;;;;2375781;56;21070;-78
2021/12/05 13:20:13;;;;;;;38.05;19.25;;;;;;;;;;2629048;52;21110;-81
2021/12/05 13:23:00;;;;;;;38.80;20.40;;;;;;;;;;2375285;56;21039;-78
2021/12/05 13:25:27;;;;;;;39.53;19.58;;;;;;;;;;2375827;56;21007;-78
2021/12/05 13:27:54;;;;;;;39.17;19.85;;;;;;;;;;2375307;56;21063;-76
2021/12/05 13:30:32;;;;;;;37.05;19.73;;;;;;;;;;2375754;56;21057;-78
2021/12/05 13:33:18;;;;;;;36.47;19.40;;;;;;;;;;2375284;56;21030;-78
2021/12/05 13:35:45;;;;;;;35.90;18.95;;;;;;;;;;2629244;52;21066;-77
2021/12/05 13:38:32;;;;;;;37.83;19.30;;;;;;;;;;2629553;52;21031;-79
2021/12/05 13:41:10;;;;;;;35.05;18.25;;;;;;;;;;2629286;52;20991;-77
2021/12/05 13:43:37;;;;;;;35.67;19.33;;;;;;;;;;2628449;52;21030;-80
2021/12/05 13:46:29;;;;;;;39.15;20.27;;;;;;;;;;2375409;56;21019;-79
2021/12/05 13:48:57;;;;;;;37.63;17.23;;;;;;;;;;2375069;56;21523;-79
2021/12/05 13:51:24;;;;;;;36.42;18.58;;;;;;;;;;2628341;52;21022;-79
2021/12/05 13:53:52;;;;;;;36.42;18.62;;;;;;;;;;2375571;56;21371;-79
2021/12/05 13:56:24;;;;;;;35.75;17.75;;;;;;;;;;2375923;56;21078;-81
2021/12/05 13:58:53;;;;;;;36.67;18.07;;;;;;;;;;2375764;56;21035;-78
2021/12/05 14:01:22;;;;;;;36.75;18.15;;;;;;;;;;2628897;52;21445;-80
2021/12/05 14:04:00;;;;;;;30.58;16.70;;;;;;;;;;2375633;56;21042;-79
2021/12/05 14:06:28;;;;;;;30.90;16.85;;;;;;;;;;2375858;56;21007;-78
2021/12/05 14:08:56;;;;;;;30.58;15.93;;;;;;;;;;2375402;56;21082;-79
2021/12/05 14:11:23;;;;;;;35.10;17.15;;;;;;;;;;2629195;52;21014;-79
2021/12/05 14:13:50;;;;;;;33.65;18.17;;;;;;;;;;2375789;56;21204;-79
2021/12/05 14:16:18;;;;;;;33.10;16.60;;;;;;;;;;2376186;56;21105;-78
2021/12/05 14:18:45;;;;;;;31.73;16.95;;;;;;;;;;2375779;56;21027;-80
2021/12/05 14:21:13;;;;;;;32.92;16.17;;;;;;;;;;2376542;56;21031;-79
2021/12/05 14:23:40;;;;;;;28.58;14.85;;;;;;;;;;2630952;52;21078;-80
2021/12/05 14:26:14;;;;;;;29.08;14.52;;;;;;;;;;2630407;52;21114;-79
2021/12/05 14:28:40;;;;;;;27.73;14.70;;;;;;;;;;2630675;52;21089;-79
2021/12/05 14:31:07;;;;;;;32.88;16.98;;;;;;;;;;2376375;56;21042;-80
2021/12/05 14:33:46;;;;;;;27.62;15.57;;;;;;;;;;2377090;56;21035;-80
2021/12/05 14:36:19;;;;;;;31.42;15.35;;;;;;;;;;2376422;56;21015;-80
2021/12/05 14:38:46;;;;;;;28.62;14.63;;;;;;;;;;2376794;56;21042;-78
2021/12/05 14:41:13;;;;;;;29.55;16.00;;;;;;;;;;2630870;52;21023;-80
2021/12/05 14:43:40;;;;;;;30.35;15.13;;;;;;;;;;2376492;56;21138;-79
2021/12/05 14:46:07;;;;;;;27.45;15.00;;;;;;;;;;2630133;52;21098;-79
2021/12/05 14:48:34;;;;;;;34.58;17.67;;;;;;;;;;2630061;52;21512;-80
2021/12/05 14:51:02;;;;;;;30.15;16.05;;;;;;;;;;2376872;56;21023;-80
2021/12/05 14:53:30;;;;;;;27.83;15.13;;;;;;;;;;2377196;56;21070;-80
2021/12/05 14:55:58;;;;;;;29.55;15.82;;;;;;;;;;2376251;56;21566;-80
2021/12/05 14:58:27;;;;;;;30.37;16.10;;;;;;;;;;2630652;52;21035;-80
2021/12/05 15:00:56;;;;;;;31.33;16.83;;;;;;;;;;2376918;56;21185;-79
2021/12/05 15:03:25;;;;;;;32.05;15.88;;;;;;;;;;2377033;56;21034;-80
2021/12/05 15:05:53;;;;;;;28.50;15.40;;;;;;;;;;2631025;52;21027;-80
2021/12/05 15:08:22;;;;;;;31.95;15.38;;;;;;;;;;2376973;56;21126;-80
2021/12/05 15:10:56;;;;;;;31.55;15.10;;;;;;;;;;2377171;56;21035;-80
2021/12/05 15:13:23;;;;;;;27.33;14.40;;;;;;;;;;2630669;52;21586;-80
2021/12/05 15:15:50;;;;;;;25.30;13.38;;;;;;;;;;2377361;56;21613;-80
2021/12/05 15:18:18;;;;;;;30.33;16.02;;;;;;;;;;2630802;52;21126;-80
2021/12/05 15:20:46;;;;;;;30.25;15.40;;;;;;;;;;2376395;56;21043;-80
2021/12/05 15:23:14;;;;;;;26.73;14.18;;;;;;;;;;2630874;52;21062;-79
2021/12/05 15:25:42;;;;;;;31.35;15.07;;;;;;;;;;2377046;56;21634;-81
2021/12/05 15:28:10;;;;;;;30.58;15.73;;;;;;;;;;2629862;52;21639;-80
2021/12/05 15:30:39;;;;;;;32.10;15.27;;;;;;;;;;2376089;56;21098;-80
2021/12/05 15:33:07;;;;;;;27.83;14.85;;;;;;;;;;2377229;56;21106;-80
2021/12/05 15:35:34;;;;;;;27.00;14.38;;;;;;;;;;2376891;56;21094;-80
2021/12/05 15:38:02;;;;;;;26.75;14.02;;;;;;;;;;2376930;56;21079;-80
2021/12/05 15:40:31;;;;;;;24.77;13.80;;;;;;;;;;2630152;52;21602;-80
2021/12/05 15:43:01;;;;;;;25.95;13.62;;;;;;;;;;2630819;52;21593;-80
2021/12/05 15:45:28;;;;;;;25.90;13.38;;;;;;;;;;2376957;56;21113;-81
2021/12/05 15:47:55;;;;;;;26.65;13.95;;;;;;;;;;2377216;56;21067;-81
2021/12/05 15:50:23;;;;;;;31.77;15.27;;;;;;;;;;2376662;56;21114;-81
2021/12/05 15:52:51;;;;;;;25.98;13.48;;;;;;;;;;2377370;56;21144;-81
2021/12/05 15:55:20;;;;;;;28.33;14.73;;;;;;;;;;2377533;56;21011;-80
2021/12/05 15:57:48;;;;;;;25.05;14.20;;;;;;;;;;2630714;52;21023;-81
2021/12/05 16:00:19;;;;;;;29.45;15.02;;;;;;;;;;2376164;56;21046;-81
2021/12/05 16:02:48;;;;;;;26.20;14.70;;;;;;;;;;2630286;52;21540;-80
2021/12/05 16:05:20;;;;;;;27.83;14.55;;;;;;;;;;2630795;52;21022;-80
2021/12/05 16:07:48;;;;;;;27.70;14.98;;;;;;;;;;2376772;56;21102;-81
2021/12/05 16:10:18;;;;;;;34.03;16.35;;;;;;;;;;2630513;52;21062;-81
2021/12/05 16:12:48;;;;;;;30.50;15.57;;;;;;;;;;2358285;52;21064;-85
2021/12/05 16:15:16;;;;;;;34.08;16.30;;;;;;;;;;2302183;58;21087;-85
2021/12/05 16:17:43;;;;;;;33.95;17.00;;;;;;;;;;2303414;54;21545;-85
2021/12/05 16:20:18;;;;;;;29.70;15.85;;;;;;;;;;2307362;54;21064;-83
2021/12/05 16:22:57;;;;;;;32.95;17.05;;;;;;;;;;2344860;54;21126;-84
2021/12/05 16:25:24;;;;;;;28.35;16.00;;;;;;;;;;2329079;56;21063;-85
2021/12/05 16:27:53;;;;;;;32.53;16.73;;;;;;;;;;2337859;54;21067;-85
2021/12/05 16:30:24;;;;;;;36.63;17.42;;;;;;;;;;2328446;58;21039;-86
2021/12/05 16:32:51;;;;;;;38.30;18.75;;;;;;;;;;2328967;58;21050;-85
2021/12/05 16:35:25;;;;;;;38.08;17.65;;;;;;;;;;2329702;55;21055;-85
2021/12/05 16:37:52;;;;;;;33.55;17.05;;;;;;;;;;2333063;54;21090;-86
2021/12/05 16:40:20;;;;;;;35.25;17.40;;;;;;;;;;2329618;58;21067;-85
2021/12/05 16:42:47;;;;;;;36.83;17.65;;;;;;;;;;2339760;54;21055;-85
2021/12/05 16:45:15;;;;;;;37.83;18.50;;;;;;;;;;2330115;58;21058;-86
2021/12/05 16:47:44;;;;;;;36.35;18.65;;;;;;;;;;2334949;54;21042;-85
2021/12/05 16:50:13;;;;;;;36.17;17.48;;;;;;;;;;2330062;55;21087;-86
2021/12/05 16:52:50;;;;;;;37.88;17.60;;;;;;;;;;2328894;56;21079;-85
2021/12/05 16:55:24;;;;;;;35.92;16.83;;;;;;;;;;2341579;54;21099;-86
2021/12/05 16:57:58;;;;;;;38.67;17.83;;;;;;;;;;2329614;54;21059;-85
2021/12/05 17:00:27;;;;;;;35.58;17.25;;;;;;;;;;2333372;54;21062;-86
2021/12/05 17:02:55;;;;;;;37.88;18.50;;;;;;;;;;2329170;58;21119;-84
2021/12/05 17:05:24;;;;;;;36.67;17.55;;;;;;;;;;2328935;57;21119;-84
2021/12/05 17:07:57;;;;;;;34.47;17.27;;;;;;;;;;2343062;54;21047;-84
2021/12/05 17:10:32;;;;;;;40.38;18.08;;;;;;;;;;2330331;58;21043;-84
2021/12/05 17:13:07;;;;;;;38.45;18.08;;;;;;;;;;2329933;58;21099;-83
2021/12/05 17:15:36;;;;;;;40.10;18.90;;;;;;;;;;2329473;58;21115;-82
2021/12/05 17:18:04;;;;;;;47.50;20.60;;;;;;;;;;2348869;54;21071;-85
2021/12/05 17:20:32;;;;;;;40.60;18.90;;;;;;;;;;2328374;56;21119;-84
2021/12/05 17:23:00;;;;;;;39.45;17.67;;;;;;;;;;2335829;54;21106;-85
2021/12/05 17:25:29;;;;;;;40.33;19.00;;;;;;;;;;2328112;55;21078;-82
2021/12/05 17:27:56;;;;;;;40.08;19.08;;;;;;;;;;2327777;58;21091;-83
2021/12/05 17:30:23;;;;;;;37.63;18.02;;;;;;;;;;2330139;54;21067;-83
2021/12/05 17:32:51;;;;;;;41.00;19.73;;;;;;;;;;2327973;58;21055;-83
2021/12/05 17:35:18;;;;;;;39.85;19.75;;;;;;;;;;2327924;58;21154;-85
2021/12/05 17:37:46;;;;;;;42.33;20.37;;;;;;;;;;2356715;54;21126;-84
2021/12/05 17:40:13;;;;;;;51.17;22.30;;;;;;;;;;2327328;58;21086;-82
2021/12/05 17:42:42;;;;;;;45.47;18.62;;;;;;;;;;2327623;58;21134;-83
2021/12/05 17:45:11;;;;;;;43.50;20.08;;;;;;;;;;2327856;58;21086;-83
2021/12/05 17:47:38;;;;;;;45.00;20.00;;;;;;;;;;2328211;58;21059;-83
2021/12/05 17:50:07;;;;;;;42.47;20.27;;;;;;;;;;2333355;54;21603;-83
2021/12/05 17:52:34;;;;;;;51.72;20.17;;;;;;;;;;2328315;58;21130;-82
2021/12/05 17:55:06;;;;;;;43.08;19.80;;;;;;;;;;2327938;58;21039;-82
2021/12/05 17:57:38;;;;;;;47.22;20.42;;;;;;;;;;2328082;58;21125;-82
2021/12/05 18:00:14;;;;;;;44.85;20.40;;;;;;;;;;2352801;54;21076;-83
2021/12/05 18:02:45;;;;;;;46.60;20.35;;;;;;;;;;2375303;54;21134;-82
2021/12/05 18:05:14;;;;;;;37.05;18.10;;;;;;;;;;2327961;58;21122;-83
2021/12/05 18:07:42;;;;;;;43.83;20.60;;;;;;;;;;2327589;58;21123;-81
2021/12/05 18:10:10;;;;;;;44.92;20.33;;;;;;;;;;2339377;54;21110;-82
2021/12/05 18:12:38;;;;;;;42.17;20.23;;;;;;;;;;2340312;54;21072;-82
2021/12/05 18:15:07;;;;;;;44.25;20.85;;;;;;;;;;2327540;58;21162;-83
2021/12/05 18:17:34;;;;;;;46.30;20.88;;;;;;;;;;2327971;58;21035;-83
2021/12/05 18:20:01;;;;;;;45.05;19.55;;;;;;;;;;2333378;54;21122;-82
2021/12/05 18:22:28;;;;;;;42.00;20.05;;;;;;;;;;2327741;58;21047;-83
2021/12/05 18:24:55;;;;;;;41.95;19.58;;;;;;;;;;2327475;58;21551;-83
2021/12/05 18:27:22;;;;;;;41.83;19.98;;;;;;;;;;2327699;58;21622;-84
2021/12/05 18:29:49;;;;;;;38.97;20.73;;;;;;;;;;2355557;54;21579;-82
2021/12/05 18:32:16;;;;;;;41.58;19.23;;;;;;;;;;2326445;58;21071;-83
2021/12/05 18:34:43;;;;;;;42.38;19.55;;;;;;;;;;2327003;58;21134;-81
2021/12/05 18:37:11;;;;;;;41.22;17.87;;;;;;;;;;2327209;58;21115;-84
2021/12/05 18:39:42;;;;;;;37.45;17.37;;;;;;;;;;2327019;58;21654;-84
2021/12/05 18:42:09;;;;;;;34.92;17.75;;;;;;;;;;2327281;58;21143;-84
2021/12/05 18:44:41;;;;;;;47.10;21.12;;;;;;;;;;2326445;58;21114;-82
2021/12/05 18:47:09;;;;;;;40.45;19.35;;;;;;;;;;2332456;54;21071;-84
2021/12/05 18:49:36;;;;;;;38.60;18.52;;;;;;;;;;2327542;58;21051;-83
2021/12/05 18:52:04;;;;;;;43.65;20.48;;;;;;;;;;2327411;58;21540;-82
2021/12/05 18:54:33;;;;;;;45.05;19.02;;;;;;;;;;2327240;58;21054;-82
2021/12/05 18:57:00;;;;;;;39.67;19.60;;;;;;;;;;2346526;54;21071;-81
2021/12/05 18:59:28;;;;;;;40.67;20.30;;;;;;;;;;2332501;54;21574;-80
2021/12/05 19:04:45;;;;;;;45.35;20.67;;;;;;;;;;2327238;54;21077;-83
2021/12/05 19:07:18;;;;;;;39.85;18.10;;;;;;;;;;2327180;58;21063;-81
2021/12/05 19:12:33;;;;;;;41.08;19.90;;;;;;;;;;2293802;56;21653;-83
2021/12/05 19:15:00;;;;;;;38.75;18.50;;;;;;;;;;2329890;54;21212;-82
2021/12/05 19:17:29;;;;;;;41.83;20.35;;;;;;;;;;2335476;54;21051;-83
2021/12/05 19:19:59;;;;;;;41.17;19.77;;;;;;;;;;2327551;58;21071;-83
2021/12/05 19:22:31;;;;;;;43.90;20.75;;;;;;;;;;2327913;54;21090;-83
2021/12/05 19:24:59;;;;;;;43.03;18.33;;;;;;;;;;2327621;58;21050;-83
2021/12/05 19:27:26;;;;;;;37.08;18.00;;;;;;;;;;2364780;54;21095;-85
2021/12/05 19:29:53;;;;;;;42.60;20.02;;;;;;;;;;2398445;54;21051;-86
2021/12/05 19:32:21;;;;;;;43.95;20.88;;;;;;;;;;2331141;58;21331;-84
2021/12/05 19:34:49;;;;;;;38.05;18.83;;;;;;;;;;2331049;58;21046;-86
2021/12/05 19:37:16;;;;;;;37.70;18.37;;;;;;;;;;2332664;54;21050;-85
2021/12/05 19:39:44;;;;;;;37.10;17.45;;;;;;;;;;2331126;56;21067;-86
2021/12/05 19:42:11;;;;;;;37.55;18.15;;;;;;;;;;2329298;58;21099;-86
2021/12/05 19:44:40;;;;;;;40.47;19.40;;;;;;;;;;2330457;54;21055;-86
2021/12/05 19:47:08;;;;;;;38.25;17.92;;;;;;;;;;2328649;58;21126;-86
2021/12/05 19:49:36;;;;;;;38.50;17.80;;;;;;;;;;2329545;58;21039;-84
2021/12/05 19:52:04;;;;;;;44.90;19.90;;;;;;;;;;2329544;57;21075;-86
2021/12/05 19:54:31;;;;;;;38.20;18.23;;;;;;;;;;2330830;56;21055;-87
2021/12/05 19:57:00;;;;;;;40.67;20.45;;;;;;;;;;2356511;54;21130;-85
2021/12/05 19:59:27;;;;;;;42.90;19.70;;;;;;;;;;2376366;54;21050;-85
2021/12/05 20:01:55;;;;;;;40.50;19.62;;;;;;;;;;2387441;54;21059;-83
2021/12/05 20:04:23;;;;;;;41.70;18.48;;;;;;;;;;2328356;58;21158;-83
2021/12/05 20:06:50;;;;;;;159.95;31.83;;;;;;;;;;2327877;58;21054;-85
2021/12/05 20:09:18;;;;;;;35.63;18.52;;;;;;;;;;2327916;58;21067;-83
2021/12/05 20:11:46;;;;;;;42.40;19.50;;;;;;;;;;2328408;58;21560;-84
2021/12/05 20:14:13;;;;;;;44.20;20.62;;;;;;;;;;2327995;58;21712;-84
2021/12/05 20:16:40;;;;;;;40.85;19.83;;;;;;;;;;2328602;54;21685;-82
2021/12/05 20:19:07;;;;;;;40.22;19.80;;;;;;;;;;2327520;58;21054;-83
2021/12/05 20:21:36;;;;;;;39.90;18.90;;;;;;;;;;2327782;58;21051;-85
2021/12/05 20:24:04;;;;;;;41.42;19.10;;;;;;;;;;2328653;58;21067;-84
2021/12/05 20:26:31;;;;;;;33.25;17.20;;;;;;;;;;2360760;54;21059;-86
2021/12/05 20:28:58;;;;;;;38.03;18.50;;;;;;;;;;2334116;54;21611;-85
2021/12/05 20:31:25;;;;;;;41.30;18.23;;;;;;;;;;2336552;54;21047;-85
2021/12/05 20:33:55;;;;;;;40.70;18.15;;;;;;;;;;2422281;54;21082;-84
2021/12/05 20:36:22;;;;;;;40.55;19.17;;;;;;;;;;2327894;58;21039;-84
2021/12/05 20:38:51;;;;;;;42.10;19.70;;;;;;;;;;2327117;58;21078;-84
2021/12/05 20:41:18;;;;;;;37.58;20.52;;;;;;;;;;2370566;54;21115;-84
2021/12/05 20:43:46;;;;;;;38.92;19.70;;;;;;;;;;2361270;54;21626;-84
2021/12/05 20:46:13;;;;;;;43.67;19.75;;;;;;;;;;2328869;54;21642;-84
2021/12/05 20:48:40;;;;;;;38.60;19.25;;;;;;;;;;2370353;54;21060;-85
2021/12/05 20:51:08;;;;;;;38.60;19.05;;;;;;;;;;2327265;58;21639;-86
2021/12/05 20:53:36;;;;;;;43.95;20.88;;;;;;;;;;2327334;58;21047;-84
2021/12/05 20:56:04;;;;;;;39.53;18.65;;;;;;;;;;2346477;54;21556;-84
2021/12/05 20:58:31;;;;;;;41.10;20.48;;;;;;;;;;2326957;58;21070;-85
2021/12/05 21:01:00;;;;;;;37.15;18.20;;;;;;;;;;2360028;54;21058;-85
2021/12/05 21:03:27;;;;;;;42.20;21.15;;;;;;;;;;2338517;54;21067;-85
2021/12/05 21:05:57;;;;;;;43.25;20.30;;;;;;;;;;2328116;58;21055;-85
2021/12/05 21:08:25;;;;;;;41.80;20.83;;;;;;;;;;2327980;58;21119;-85
2021/12/05 21:10:56;;;;;;;41.67;20.17;;;;;;;;;;2327254;54;21211;-85
2021/12/05 21:13:24;;;;;;;38.33;20.10;;;;;;;;;;2327483;58;21080;-85
2021/12/05 21:15:52;;;;;;;38.97;19.37;;;;;;;;;;2357347;54;21228;-85
2021/12/05 21:18:24;;;;;;;47.75;21.33;;;;;;;;;;2327575;58;21095;-85
2021/12/05 21:20:52;;;;;;;41.42;17.83;;;;;;;;;;2327222;58;21118;-84
2021/12/05 21:23:19;;;;;;;39.53;20.77;;;;;;;;;;2328281;58;21142;-85
2021/12/05 21:25:46;;;;;;;40.12;20.08;;;;;;;;;;2327978;58;21594;-84
2021/12/05 21:28:13;;;;;;;37.50;19.27;;;;;;;;;;2334772;54;21616;-85